Time;durP1;ratioP1;P1;durP2;ratioP2;P2;SDS_P1;SDS_P2;PMS_P1;PMS_P2;Temp;Humidity;BMP_temperature;BMP_pressure;BME280_temperature;BME280_humidity;BME280_pressure;Samples;Min_cycle;Max_cycle;Signal;HPM_P1;HPM_P2
2022/05/19 00:01:56;;;;;;;;;;;;;;;;;;5060390;28;1609;-82
2022/05/19 00:04:22;;;;;;;;;;;;;;;;;;5072399;28;1204;-81
2022/05/19 00:06:47;;;;;;;;;;;;;;;;;;5044697;28;1196;-83
2022/05/19 00:09:13;;;;;;;;;;;;;;;;;;5069020;28;736;-82
2022/05/19 00:11:39;;;;;;;;;;;;;;;;;;5067127;28;795;-82
2022/05/19 00:14:04;;;;;;;;;;;;;;;;;;5050799;28;1300;-82
2022/05/19 00:16:30;;;;;;;;;;;;;;;;;;5048507;28;1969;-82
2022/05/19 00:18:55;;;;;;;;;;;;;;;;;;5070027;28;859;-81
2022/05/19 00:21:21;;;;;;;;;;;;;;;;;;5046101;28;1307;-81
2022/05/19 00:23:46;;;;;;;;;;;;;;;;;;5068357;28;862;-81
2022/05/19 00:26:12;;;;;;;;;;;;;;;;;;5050970;28;1326;-83
2022/05/19 00:28:37;;;;;;;;;;;;;;;;;;5064897;28;1145;-82
2022/05/19 00:31:02;;;;;;;;;;;;;;;;;;5066235;28;1176;-82
2022/05/19 00:33:31;;;;;;;;;;;;;;;;;;5062879;28;1184;-81
2022/05/19 00:35:56;;;;;;;;;;;;;;;;;;5081162;28;1959;-81
2022/05/19 00:38:21;;;;;;;;;;;;;;;;;;5070912;28;989;-81
2022/05/19 00:40:48;;;;;;;;;;;;;;;;;;5070113;28;938;-82
2022/05/19 00:43:14;;;;;;;;;;;;;;;;;;5070798;28;1132;-82
2022/05/19 00:45:54;;;;;;;;;;;;;;;;;;5070140;28;1355;-83
2022/05/19 00:48:22;;;;;;;;;;;;;;;;;;5071352;28;1214;-82
2022/05/19 00:50:54;;;;;;;;;;;;;;;;;;5084133;28;882;-83
2022/05/19 00:53:31;;;;;;;;;;;;;;;;;;5088871;28;901;-83
2022/05/19 00:55:59;;;;;;;;;;;;;;;;;;5071137;28;1948;-83
2022/05/19 00:58:29;;;;;;;;;;;;;;;;;;5071466;28;1376;-82
2022/05/19 01:00:54;;;;;;;;;;;;;;;;;;5070035;28;1056;-81
2022/05/19 01:03:21;;;;;;;;;;;;;;;;;;5072420;28;1282;-82
2022/05/19 01:05:50;;;;;;;;;;;;;;;;;;5073906;28;1117;-82
2022/05/19 01:08:19;;;;;;;;;;;;;;;;;;5047127;28;1222;-81
2022/05/19 01:10:44;;;;;;;;;;;;;;;;;;5058211;28;1270;-82
2022/05/19 01:13:11;;;;;;;;;;;;;;;;;;5068254;28;1122;-82
2022/05/19 01:15:39;;;;;;;;;;;;;;;;;;5085052;28;1185;-82
2022/05/19 01:18:04;;;;;;;;;;;;;;;;;;5069228;28;1910;-81
2022/05/19 01:20:31;;;;;;;;;;;;;;;;;;5059930;28;1362;-81
2022/05/19 01:23:18;;;;;;;;;;;;;;;;;;5065412;28;1216;-81
2022/05/19 01:25:43;;;;;;;;;;;;;;;;;;5071296;28;1077;-82
2022/05/19 01:28:09;;;;;;;;;;;;;;;;;;5084486;28;1062;-82
2022/05/19 01:30:34;;;;;;;;;;;;;;;;;;5048256;28;1231;-81
2022/05/19 01:33:00;;;;;;;;;;;;;;;;;;5072519;28;1153;-81
2022/05/19 01:35:26;;;;;;;;;;;;;;;;;;5057936;28;1316;-82
2022/05/19 01:37:51;;;;;;;;;;;;;;;;;;5052490;28;1889;-81
2022/05/19 01:40:25;;;;;;;;;;;;;;;;;;5069813;28;1176;-82
2022/05/19 01:43:06;;;;;;;;;;;;;;;;;;5049696;28;1359;-82
2022/05/19 01:45:35;;;;;;;;;;;;;;;;;;5068138;28;1087;-82
2022/05/19 01:48:14;;;;;;;;;;;;;;;;;;5050860;28;1516;-81
2022/05/19 01:50:40;;;;;;;;;;;;;;;;;;5044337;28;1176;-82
2022/05/19 01:53:23;;;;;;;;;;;;;;;;;;5048130;28;1292;-82
2022/05/19 01:55:55;;;;;;;;;;;;;;;;;;5049310;28;1280;-82
2022/05/19 01:58:20;;;;;;;;;;;;;;;;;;5067134;28;1881;-81
2022/05/19 02:00:48;;;;;;;;;;;;;;;;;;5058951;28;1256;-81
2022/05/19 02:03:32;;;;;;;;;;;;;;;;;;5069908;28;1179;-80
2022/05/19 02:06:01;;;;;;;;;;;;;;;;;;5059214;28;1187;-81
2022/05/19 02:08:29;;;;;;;;;;;;;;;;;;5046937;28;1175;-81
2022/05/19 02:10:58;;;;;;;;;;;;;;;;;;5066232;28;1105;-81
2022/05/19 02:13:23;;;;;;;;;;;;;;;;;;5067290;28;1216;-81
2022/05/19 02:15:51;;;;;;;;;;;;;;;;;;5071406;28;1192;-82
2022/05/19 02:18:17;;;;;;;;;;;;;;;;;;5075233;28;1906;-81
2022/05/19 02:20:44;;;;;;;;;;;;;;;;;;5065762;28;1021;-80
2022/05/19 02:23:11;;;;;;;;;;;;;;;;;;5044591;28;1192;-81
2022/05/19 02:25:41;;;;;;;;;;;;;;;;;;5054541;28;1282;-81
2022/05/19 02:28:12;;;;;;;;;;;;;;;;;;5064681;28;1232;-82
2022/05/19 02:30:39;;;;;;;;;;;;;;;;;;5064424;28;1200;-82
2022/05/19 02:33:05;;;;;;;;;;;;;;;;;;5050662;28;1484;-80
2022/05/19 02:35:30;;;;;;;;;;;;;;;;;;5051642;28;1303;-83
2022/05/19 02:37:57;;;;;;;;;;;;;;;;;;5045262;28;1902;-83
2022/05/19 02:40:24;;;;;;;;;;;;;;;;;;5060935;28;1228;-83
2022/05/19 02:42:49;;;;;;;;;;;;;;;;;;5067679;28;1208;-82
2022/05/19 02:45:16;;;;;;;;;;;;;;;;;;5086343;28;1188;-84
2022/05/19 02:47:42;;;;;;;;;;;;;;;;;;5061390;28;1243;-83
2022/05/19 02:50:08;;;;;;;;;;;;;;;;;;5043001;28;1161;-84
2022/05/19 02:52:33;;;;;;;;;;;;;;;;;;5047063;28;1275;-85
2022/05/19 02:54:59;;;;;;;;;;;;;;;;;;5047467;28;1201;-84
2022/05/19 02:57:24;;;;;;;;;;;;;;;;;;5054356;28;1957;-84
2022/05/19 02:59:49;;;;;;;;;;;;;;;;;;5051872;28;1322;-84
2022/05/19 03:02:14;;;;;;;;;;;;;;;;;;5046164;28;1176;-85
2022/05/19 03:04:47;;;;;;;;;;;;;;;;;;5045057;28;1281;-84
2022/05/19 03:07:12;;;;;;;;;;;;;;;;;;5044741;28;1096;-85
2022/05/19 03:09:42;;;;;;;;;;;;;;;;;;5046393;28;1307;-84
2022/05/19 03:12:08;;;;;;;;;;;;;;;;;;5045004;28;1298;-86
2022/05/19 03:14:34;;;;;;;;;;;;;;;;;;5063080;28;1234;-85
2022/05/19 03:16:59;;;;;;;;;;;;;;;;;;5044526;28;1964;-84
2022/05/19 03:19:26;;;;;;;;;;;;;;;;;;5048673;28;1311;-84
2022/05/19 03:21:51;;;;;;;;;;;;;;;;;;5055530;28;1512;-83
2022/05/19 03:24:18;;;;;;;;;;;;;;;;;;5049355;28;1212;-83
2022/05/19 03:26:47;;;;;;;;;;;;;;;;;;5049342;28;1302;-85
2022/05/19 03:29:12;;;;;;;;;;;;;;;;;;5054116;28;1204;-85
2022/05/19 03:31:38;;;;;;;;;;;;;;;;;;5067473;28;1193;-85
2022/05/19 03:34:04;;;;;;;;;;;;;;;;;;5051512;28;1184;-85
2022/05/19 03:36:29;;;;;;;;;;;;;;;;;;5082548;28;1955;-86
2022/05/19 03:38:55;;;;;;;;;;;;;;;;;;5054243;28;1218;-86
2022/05/19 03:41:21;;;;;;;;;;;;;;;;;;5051452;28;1263;-85
2022/05/19 03:43:47;;;;;;;;;;;;;;;;;;5071451;28;1392;-85
2022/05/19 03:46:12;;;;;;;;;;;;;;;;;;5053836;28;1271;-85
2022/05/19 03:48:38;;;;;;;;;;;;;;;;;;5056128;28;1352;-86
2022/05/19 03:51:04;;;;;;;;;;;;;;;;;;5068213;28;1170;-85
2022/05/19 03:53:30;;;;;;;;;;;;;;;;;;5072584;28;1135;-85
2022/05/19 03:55:55;;;;;;;;;;;;;;;;;;5054486;28;1177;-84
2022/05/19 03:58:20;;;;;;;;;;;;;;;;;;5081828;28;1886;-87
2022/05/19 04:00:49;;;;;;;;;;;;;;;;;;5090596;28;850;-86
2022/05/19 04:03:14;;;;;;;;;;;;;;;;;;5074498;28;1270;-86
2022/05/19 04:05:40;;;;;;;;;;;;;;;;;;5070721;28;1529;-86
2022/05/19 04:08:05;;;;;;;;;;;;;;;;;;5037535;28;1229;-86
2022/05/19 04:10:31;;;;;;;;;;;;;;;;;;5082841;28;1192;-86
2022/05/19 04:12:57;;;;;;;;;;;;;;;;;;5059610;28;1187;-85
2022/05/19 04:15:23;;;;;;;;;;;;;;;;;;5058720;28;1314;-87
2022/05/19 04:17:49;;;;;;;;;;;;;;;;;;5063618;28;1914;-86
2022/05/19 04:20:15;;;;;;;;;;;;;;;;;;5051872;28;1316;-87
2022/05/19 04:22:40;;;;;;;;;;;;;;;;;;5054721;28;1196;-85
2022/05/19 04:25:07;;;;;;;;;;;;;;;;;;5052031;28;1220;-86
2022/05/19 04:27:33;;;;;;;;;;;;;;;;;;5058362;28;1166;-87
2022/05/19 04:29:59;;;;;;;;;;;;;;;;;;5056529;28;1117;-87
2022/05/19 04:32:24;;;;;;;;;;;;;;;;;;5069521;28;1235;-87
2022/05/19 04:34:50;;;;;;;;;;;;;;;;;;5062338;28;1156;-86
2022/05/19 04:37:15;;;;;;;;;;;;;;;;;;5053878;28;1890;-87
2022/05/19 04:39:40;;;;;;;;;;;;;;;;;;5060064;28;1295;-87
2022/05/19 04:42:10;;;;;;;;;;;;;;;;;;5050221;28;748;-86
2022/05/19 04:44:39;;;;;;;;;;;;;;;;;;5048861;28;1136;-86
2022/05/19 04:47:05;;;;;;;;;;;;;;;;;;5048465;28;1266;-87
2022/05/19 04:49:33;;;;;;;;;;;;;;;;;;5050276;28;1273;-86
2022/05/19 04:51:58;;;;;;;;;;;;;;;;;;5045107;28;882;-87
2022/05/19 04:54:25;;;;;;;;;;;;;;;;;;5049121;28;1228;-85
2022/05/19 04:56:50;;;;;;;;;;;;;;;;;;5047710;28;1893;-86
2022/05/19 04:59:16;;;;;;;;;;;;;;;;;;5049608;28;1302;-86
2022/05/19 05:01:42;;;;;;;;;;;;;;;;;;5048330;28;1174;-87
2022/05/19 05:04:07;;;;;;;;;;;;;;;;;;5065926;28;1178;-87
2022/05/19 05:06:33;;;;;;;;;;;;;;;;;;5043818;28;1060;-86
2022/05/19 05:08:58;;;;;;;;;;;;;;;;;;5054733;28;1348;-86
2022/05/19 05:11:23;;;;;;;;;;;;;;;;;;5031955;28;1231;-87
2022/05/19 05:13:50;;;;;;;;;;;;;;;;;;5049589;28;1175;-87
2022/05/19 05:16:15;;;;;;;;;;;;;;;;;;5049100;28;1914;-86
2022/05/19 05:18:41;;;;;;;;;;;;;;;;;;5051383;28;894;-87
2022/05/19 05:21:13;;;;;;;;;;;;;;;;;;5047270;28;1256;-87
2022/05/19 05:23:38;;;;;;;;;;;;;;;;;;5054334;28;1272;-89
2022/05/19 05:26:06;;;;;;;;;;;;;;;;;;5050472;28;1235;-87
2022/05/19 05:28:31;;;;;;;;;;;;;;;;;;5052961;28;1188;-88
2022/05/19 05:30:57;;;;;;;;;;;;;;;;;;5066953;28;835;-88
2022/05/19 05:33:22;;;;;;;;;;;;;;;;;;5051203;28;1229;-87
2022/05/19 05:35:47;;;;;;;;;;;;;;;;;;5066603;28;893;-86
2022/05/19 05:38:15;;;;;;;;;;;;;;;;;;5065130;28;1882;-87
2022/05/19 05:40:40;;;;;;;;;;;;;;;;;;5053343;28;1259;-86
2022/05/19 05:43:07;;;;;;;;;;;;;;;;;;5062768;28;1230;-87
2022/05/19 05:45:32;;;;;;;;;;;;;;;;;;5062675;28;1160;-87
2022/05/19 05:48:00;;;;;;;;;;;;;;;;;;5068392;28;1193;-88
2022/05/19 05:50:25;;;;;;;;;;;;;;;;;;5075492;28;1116;-88
2022/05/19 05:52:59;;;;;;;;;;;;;;;;;;5050093;28;1215;-88
2022/05/19 05:55:25;;;;;;;;;;;;;;;;;;5085133;28;1201;-87
2022/05/19 05:57:59;;;;;;;;;;;;;;;;;;5091880;28;1898;-87
2022/05/19 06:00:24;;;;;;;;;;;;;;;;;;5077951;28;1222;-88
2022/05/19 06:02:50;;;;;;;;;;;;;;;;;;5078402;28;1126;-86
2022/05/19 06:05:16;;;;;;;;;;;;;;;;;;5074302;28;1169;-88
2022/05/19 06:07:41;;;;;;;;;;;;;;;;;;5074778;28;1484;-87
2022/05/19 06:10:07;;;;;;;;;;;;;;;;;;5079337;28;1106;-88
2022/05/19 06:12:35;;;;;;;;;;;;;;;;;;5079282;28;1287;-87
2022/05/19 06:15:01;;;;;;;;;;;;;;;;;;5076265;28;1334;-87
2022/05/19 06:17:26;;;;;;;;;;;;;;;;;;5064808;28;1917;-86
2022/05/19 06:19:53;;;;;;;;;;;;;;;;;;5072715;28;1180;-88
2022/05/19 06:22:21;;;;;;;;;;;;;;;;;;5050367;28;1283;-86
2022/05/19 06:24:46;;;;;;;;;;;;;;;;;;5055802;28;1252;-86
2022/05/19 06:27:11;;;;;;;;;;;;;;;;;;5041579;28;1186;-87
2022/05/19 06:29:39;;;;;;;;;;;;;;;;;;5048640;28;1160;-89
2022/05/19 06:32:05;;;;;;;;;;;;;;;;;;5064862;28;1196;-87
2022/05/19 06:34:46;;;;;;;;;;;;;;;;;;;;;
2022/05/19 06:37:12;;;;;;;;;;;;;;;;;;5082674;28;1989;-88
2022/05/19 06:39:41;;;;;;;;;;;;;;;;;;5054630;28;1193;-88
2022/05/19 06:42:14;;;;;;;;;;;;;;;;;;5056457;28;1206;-88
2022/05/19 06:44:40;;;;;;;;;;;;;;;;;;5057971;28;1532;-87
2022/05/19 06:47:13;;;;;;;;;;;;;;;;;;5075142;28;1101;-87
2022/05/19 06:49:42;;;;;;;;;;;;;;;;;;5062122;28;1200;-87
2022/05/19 06:52:10;;;;;;;;;;;;;;;;;;5047191;28;1332;-86
2022/05/19 06:54:35;;;;;;;;;;;;;;;;;;5071660;28;1164;-87
2022/05/19 06:57:01;;;;;;;;;;;;;;;;;;5076534;28;1912;-87
2022/05/19 06:59:26;;;;;;;;;;;;;;;;;;5065191;28;1306;-87
2022/05/19 07:01:57;;;;;;;;;;;;;;;;;;5060442;28;1325;-86
2022/05/19 07:04:23;;;;;;;;;;;;;;;;;;5072792;28;1252;-86
2022/05/19 07:06:48;;;;;;;;;;;;;;;;;;5054822;28;1399;-86
2022/05/19 07:09:13;;;;;;;;;;;;;;;;;;5054716;28;1133;-87
2022/05/19 07:11:39;;;;;;;;;;;;;;;;;;5067070;28;1176;-80
2022/05/19 07:14:06;;;;;;;;;;;;;;;;;;5070761;28;1313;-79
2022/05/19 07:16:32;;;;;;;;;;;;;;;;;;5068895;28;1929;-86
2022/05/19 07:21:43;;;;;;;;;;;;;;;;;;5085623;28;993;-85
2022/05/19 07:24:18;;;;;;;;;;;;;;;;;;5072745;28;1277;-84
2022/05/19 07:26:45;;;;;;;;;;;;;;;;;;5084396;28;1121;-84
2022/05/19 07:29:10;;;;;;;;;;;;;;;;;;5069759;28;1152;-83
2022/05/19 07:31:36;;;;;;;;;;;;;;;;;;5068218;28;1161;-84
2022/05/19 07:34:05;;;;;;;;;;;;;;;;;;5068873;28;1145;-84
2022/05/19 07:36:32;;;;;;;;;;;;;;;;;;5047893;28;1888;-84
2022/05/19 07:38:59;;;;;;;;;;;;;;;;;;5069095;28;842;-84
2022/05/19 07:41:25;;;;;;;;;;;;;;;;;;5050309;28;1362;-86
2022/05/19 07:43:52;;;;;;;;;;;;;;;;;;5053070;28;1280;-85
2022/05/19 07:46:18;;;;;;;;;;;;;;;;;;5067108;28;838;-84
2022/05/19 07:48:43;;;;;;;;;;;;;;;;;;5052168;28;1232;-85
2022/05/19 07:51:08;;;;;;;;;;;;;;;;;;5063333;28;1165;-84
2022/05/19 07:53:34;;;;;;;;;;;;;;;;;;5053687;28;1275;-84
2022/05/19 07:55:59;;;;;;;;;;;;;;;;;;5069800;28;1227;-84
2022/05/19 07:58:24;;;;;;;;;;;;;;;;;;5032763;28;1949;-84
2022/05/19 08:00:52;;;;;;;;;;;;;;;;;;5061627;28;1172;-84
2022/05/19 08:03:17;;;;;;;;;;;;;;;;;;5069986;28;1372;-82
2022/05/19 08:05:43;;;;;;;;;;;;;;;;;;5043690;28;1396;-80
2022/05/19 08:08:08;;;;;;;;;;;;;;;;;;5082709;28;1160;-81
2022/05/19 08:10:33;;;;;;;;;;;;;;;;;;5058475;28;1121;-82
2022/05/19 08:15:44;;;;;;;;;;;;;;;;;;5088322;28;694;-82
2022/05/19 08:18:12;;;;;;;;;;;;;;;;;;5088794;28;2005;-82
2022/05/19 08:20:39;;;;;;;;;;;;;;;;;;5066312;28;1249;-81
2022/05/19 08:23:08;;;;;;;;;;;;;;;;;;5068636;28;1187;-80
2022/05/19 08:25:34;;;;;;;;;;;;;;;;;;5069739;28;1124;-80
2022/05/19 08:27:59;;;;;;;;;;;;;;;;;;5072342;28;1452;-81
2022/05/19 08:30:25;;;;;;;;;;;;;;;;;;5050621;28;1330;-78
2022/05/19 08:32:50;;;;;;;;;;;;;;;;;;5067488;28;1141;-80
2022/05/19 08:35:15;;;;;;;;;;;;;;;;;;5063421;28;1200;-79
2022/05/19 08:37:41;;;;;;;;;;;;;;;;;;5078123;28;1979;-80
2022/05/19 08:40:12;;;;;;;;;;;;;;;;;;5052442;28;1288;-80
2022/05/19 08:42:40;;;;;;;;;;;;;;;;;;5043254;28;1280;-78
2022/05/19 08:45:11;;;;;;;;;;;;;;;;;;5069414;28;1215;-85
2022/05/19 08:47:37;;;;;;;;;;;;;;;;;;5070620;28;1159;-85
2022/05/19 08:50:05;;;;;;;;;;;;;;;;;;5067474;28;1288;-86
2022/05/19 08:52:36;;;;;;;;;;;;;;;;;;5066964;28;1148;-85
2022/05/19 08:55:03;;;;;;;;;;;;;;;;;;5070998;28;1267;-86
2022/05/19 08:57:28;;;;;;;;;;;;;;;;;;5052175;28;1887;-80
2022/05/19 09:00:12;;;;;;;;;;;;;;;;;;5070902;28;1275;-82
2022/05/19 09:02:56;;;;;;;;;;;;;;;;;;5069519;28;1232;-83
2022/05/19 09:05:42;;;;;;;;;;;;;;;;;;5082409;28;818;-82
2022/05/19 09:08:26;;;;;;;;;;;;;;;;;;5047695;28;1224;-82
2022/05/19 09:10:58;;;;;;;;;;;;;;;;;;5087967;28;838;-82
2022/05/19 09:13:23;;;;;;;;;;;;;;;;;;5087073;28;1183;-81
2022/05/19 09:15:49;;;;;;;;;;;;;;;;;;5052614;28;1284;-81
2022/05/19 09:18:16;;;;;;;;;;;;;;;;;;5046551;28;1914;-80
2022/05/19 09:20:53;;;;;;;;;;;;;;;;;;5041697;28;1304;-82
2022/05/19 09:23:18;;;;;;;;;;;;;;;;;;5045019;28;1172;-83
2022/05/19 09:25:46;;;;;;;;;;;;;;;;;;5045855;28;1289;-82
2022/05/19 09:28:15;;;;;;;;;;;;;;;;;;5047355;28;798;-84
2022/05/19 09:31:01;;;;;;;;;;;;;;;;;;5044928;28;881;-81
2022/05/19 09:33:32;;;;;;;;;;;;;;;;;;5044108;28;1239;-82
2022/05/19 09:36:01;;;;;;;;;;;;;;;;;;5042811;28;1272;-81
2022/05/19 09:38:31;;;;;;;;;;;;;;;;;;5044654;28;1976;-82
2022/05/19 09:41:05;;;;;;;;;;;;;;;;;;5051086;28;1406;-79
2022/05/19 09:43:33;;;;;;;;;;;;;;;;;;5070646;28;1192;-80
2022/05/19 09:46:13;;;;;;;;;;;;;;;;;;5065179;28;1060;-79
2022/05/19 09:48:43;;;;;;;;;;;;;;;;;;5052080;28;1418;-79
2022/05/19 09:51:14;;;;;;;;;;;;;;;;;;5056527;28;1632;-81
2022/05/19 09:53:52;;;;;;;;;;;;;;;;;;5067003;28;1483;-80
2022/05/19 09:56:21;;;;;;;;;;;;;;;;;;5055749;28;1279;-80
2022/05/19 09:58:49;;;;;;;;;;;;;;;;;;5064503;28;1327;-76
2022/05/19 10:01:20;;;;;;;;;;;;;;;;;;5062045;28;1181;-74
2022/05/19 10:04:05;;;;;;;;;;;;;;;;;;5064958;28;1156;-74
2022/05/19 10:06:35;;;;;;;;;;;;;;;;;;5056515;28;1184;-78
2022/05/19 10:09:06;;;;;;;;;;;;;;;;;;5063543;28;1192;-79
2022/05/19 10:11:31;;;;;;;;;;;;;;;;;;5079146;28;1196;-80
2022/05/19 10:14:03;;;;;;;;;;;;;;;;;;5048428;28;1332;-79
2022/05/19 10:16:46;;;;;;;;;;;;;;;;;;5061674;28;1934;-75
2022/05/19 10:19:21;;;;;;;;;;;;;;;;;;5048161;28;1346;-78
2022/05/19 10:21:55;;;;;;;;;;;;;;;;;;5052907;28;1346;-79
2022/05/19 10:24:39;;;;;;;;;;;;;;;;;;5047090;28;1275;-79
2022/05/19 10:32:47;;;;;;;;;;;;;;;;;;5067863;28;973;-85
2022/05/19 10:35:13;;;;;;;;;;;;;;;;;;5076166;28;1211;-84
2022/05/19 10:37:41;;;;;;;;;;;;;;;;;;5057105;28;1890;-84
2022/05/19 10:40:23;;;;;;;;;;;;;;;;;;5080634;28;1152;-82
2022/05/19 10:42:57;;;;;;;;;;;;;;;;;;5060345;28;1591;-84
2022/05/19 10:45:25;;;;;;;;;;;;;;;;;;5049621;28;1047;-83
2022/05/19 10:48:03;;;;;;;;;;;;;;;;;;5048524;28;890;-83
2022/05/19 10:50:30;;;;;;;;;;;;;;;;;;5043882;28;1227;-83
2022/05/19 10:52:58;;;;;;;;;;;;;;;;;;5063180;28;1504;-83
2022/05/19 10:55:33;;;;;;;;;;;;;;;;;;5045339;28;1308;-81
2022/05/19 10:58:02;;;;;;;;;;;;;;;;;;5049943;28;1886;-82
2022/05/19 11:00:54;;;;;;;;;;;;;;;;;;5048773;28;1176;-82
2022/05/19 11:03:38;;;;;;;;;;;;;;;;;;5027923;28;1152;-82
2022/05/19 11:06:23;;;;;;;;;;;;;;;;;;5079142;28;1426;-82
2022/05/19 11:09:10;;;;;;;;;;;;;;;;;;5054934;28;1173;-83
2022/05/19 11:11:54;;;;;;;;;;;;;;;;;;5070056;28;1513;-83
2022/05/19 11:14:26;;;;;;;;;;;;;;;;;;5066635;28;1291;-83
2022/05/19 11:17:04;;;;;;;;;;;;;;;;;;5092495;28;1909;-83
2022/05/19 11:19:40;;;;;;;;;;;;;;;;;;5071489;28;1182;-85
2022/05/19 11:22:17;;;;;;;;;;;;;;;;;;5075479;28;1149;-85
2022/05/19 11:27:38;;;;;;;;;;;;;;;;;;5092981;28;705;-87
2022/05/19 11:30:16;;;;;;;;;;;;;;;;;;5075505;28;1162;-86
2022/05/19 11:32:42;;;;;;;;;;;;;;;;;;5074496;28;1174;-83
2022/05/19 11:35:26;;;;;;;;;;;;;;;;;;5090599;28;870;-85
2022/05/19 11:37:54;;;;;;;;;;;;;;;;;;5073413;28;1953;-84
2022/05/19 11:40:25;;;;;;;;;;;;;;;;;;5092197;28;1120;-85
2022/05/19 11:42:54;;;;;;;;;;;;;;;;;;5052763;28;1228;-85
2022/05/19 11:45:29;;;;;;;;;;;;;;;;;;5080375;28;1247;-87
2022/05/19 11:56:20;;;;;;;;;;;;;;;;;;5071785;28;649;-87
2022/05/19 11:58:45;;;;;;;;;;;;;;;;;;5071664;28;1878;-85
2022/05/19 12:01:14;;;;;;;;;;;;;;;;;;5056087;28;1240;-85
2022/05/19 12:03:44;;;;;;;;;;;;;;;;;;5075638;28;1333;-86
2022/05/19 12:06:12;;;;;;;;;;;;;;;;;;5054704;28;1121;-85
2022/05/19 12:08:50;;;;;;;;;;;;;;;;;;5052950;28;1314;-84
2022/05/19 12:11:23;;;;;;;;;;;;;;;;;;5052381;28;1196;-85
2022/05/19 12:14:06;;;;;;;;;;;;;;;;;;5071912;28;1277;-85
2022/05/19 12:16:40;;;;;;;;;;;;;;;;;;5071572;28;1993;-84
2022/05/19 12:19:06;;;;;;;;;;;;;;;;;;5070852;28;1357;-84
2022/05/19 12:21:52;;;;;;;;;;;;;;;;;;5040833;28;1362;-84
2022/05/19 12:24:18;;;;;;;;;;;;;;;;;;5071360;28;1156;-84
2022/05/19 12:26:49;;;;;;;;;;;;;;;;;;5087372;28;805;-83
2022/05/19 12:29:35;;;;;;;;;;;;;;;;;;5072639;28;1282;-84
2022/05/19 12:32:13;;;;;;;;;;;;;;;;;;5050039;28;1243;-83
2022/05/19 12:34:45;;;;;;;;;;;;;;;;;;5067546;28;1332;-84
2022/05/19 12:37:46;;;;;;;;;;;;;;;;;;5068001;28;1900;-84
2022/05/19 12:40:12;;;;;;;;;;;;;;;;;;5025925;28;1276;-84
2022/05/19 12:42:40;;;;;;;;;;;;;;;;;;5075316;28;1058;-83
2022/05/19 12:45:16;;;;;;;;;;;;;;;;;;5071201;28;1256;-85
2022/05/19 12:48:02;;;;;;;;;;;;;;;;;;5069980;28;1144;-84
2022/05/19 12:50:40;;;;;;;;;;;;;;;;;;5045270;28;1188;-83
2022/05/19 12:53:09;;;;;;;;;;;;;;;;;;5062198;28;1264;-84
2022/05/19 12:55:42;;;;;;;;;;;;;;;;;;5062931;28;1357;-84
2022/05/19 12:58:26;;;;;;;;;;;;;;;;;;5054260;28;1969;-84
2022/05/19 13:00:52;;;;;;;;;;;;;;;;;;5053093;28;1475;-83
2022/05/19 13:03:18;;;;;;;;;;;;;;;;;;5070683;28;1183;-83
2022/05/19 13:05:52;;;;;;;;;;;;;;;;;;5051432;28;1279;-85
2022/05/19 13:08:37;;;;;;;;;;;;;;;;;;5055889;28;1204;-83
2022/05/19 13:11:07;;;;;;;;;;;;;;;;;;5070677;28;1254;-87
2022/05/19 13:13:33;;;;;;;;;;;;;;;;;;5077006;28;1171;-83
2022/05/19 13:16:09;;;;;;;;;;;;;;;;;;5085350;28;1132;-82
2022/05/19 13:18:36;;;;;;;;;;;;;;;;;;5058814;28;1894;-81
2022/05/19 13:21:07;;;;;;;;;;;;;;;;;;5050667;28;1239;-81
2022/05/19 13:23:33;;;;;;;;;;;;;;;;;;5062815;28;768;-80
2022/05/19 13:26:04;;;;;;;;;;;;;;;;;;5049610;28;1164;-81
2022/05/19 13:31:22;;;;;;;;;;;;;;;;;;5066748;28;645;-81
2022/05/19 13:33:58;;;;;;;;;;;;;;;;;;5049551;28;1175;-81
2022/05/19 13:36:32;;;;;;;;;;;;;;;;;;5045455;28;1211;-80
2022/05/19 13:39:26;;;;;;;;;;;;;;;;;;5044899;28;1283;-75
2022/05/19 13:41:52;;;;;;;;;;;;;;;;;;5064626;28;1181;-75
2022/05/19 13:44:29;;;;;;;;;;;;;;;;;;5086773;28;1177;-75
2022/05/19 13:46:55;;;;;;;;;;;;;;;;;;5064111;28;1172;-75
2022/05/19 13:49:22;;;;;;;;;;;;;;;;;;5087114;28;1168;-75
2022/05/19 13:51:48;;;;;;;;;;;;;;;;;;5076580;28;1255;-77
2022/05/19 13:54:39;;;;;;;;;;;;;;;;;;5065555;28;1350;-75
2022/05/19 13:57:09;;;;;;;;;;;;;;;;;;5050769;28;1944;-75
2022/05/19 13:59:38;;;;;;;;;;;;;;;;;;5063959;28;1177;-76
2022/05/19 14:02:12;;;;;;;;;;;;;;;;;;5048301;28;1515;-77
2022/05/19 14:04:46;;;;;;;;;;;;;;;;;;5061795;28;1152;-77
2022/05/19 14:07:17;;;;;;;;;;;;;;;;;;5062451;28;1299;-78
2022/05/19 14:09:49;;;;;;;;;;;;;;;;;;5053488;28;1325;-76
2022/05/19 14:12:25;;;;;;;;;;;;;;;;;;5047251;28;862;-77
2022/05/19 14:14:53;;;;;;;;;;;;;;;;;;5044875;28;847;-76
2022/05/19 14:17:19;;;;;;;;;;;;;;;;;;5043970;28;1969;-76
2022/05/19 14:19:49;;;;;;;;;;;;;;;;;;5044532;28;798;-76
2022/05/19 14:22:18;;;;;;;;;;;;;;;;;;5043941;28;1168;-76
2022/05/19 14:24:47;;;;;;;;;;;;;;;;;;5044708;28;842;-74
2022/05/19 14:27:17;;;;;;;;;;;;;;;;;;5067063;28;1223;-77
2022/05/19 14:29:45;;;;;;;;;;;;;;;;;;5065013;28;1361;-81
2022/05/19 14:32:32;;;;;;;;;;;;;;;;;;5087245;28;1056;-82
2022/05/19 14:35:06;;;;;;;;;;;;;;;;;;5087314;28;969;-82
2022/05/19 14:37:33;;;;;;;;;;;;;;;;;;5086886;28;1945;-83
2022/05/19 14:43:04;;;;;;;;;;;;;;;;;;5058375;28;1228;-83
2022/05/19 14:43:06;;;;;;;;;;;;;;;;;;5049475;28;864;-84
2022/05/19 14:45:37;;;;;;;;;;;;;;;;;;5048303;28;1113;-83
2022/05/19 14:48:07;;;;;;;;;;;;;;;;;;5049071;28;1303;-83
2022/05/19 14:50:33;;;;;;;;;;;;;;;;;;5060981;28;1197;-84
2022/05/19 14:53:01;;;;;;;;;;;;;;;;;;5043743;28;1316;-84
2022/05/19 14:55:30;;;;;;;;;;;;;;;;;;5066225;28;1274;-77
2022/05/19 14:57:57;;;;;;;;;;;;;;;;;;5056810;28;1960;-77
2022/05/19 15:00:24;;;;;;;;;;;;;;;;;;5052941;28;1279;-77
2022/05/19 15:02:50;;;;;;;;;;;;;;;;;;5067180;28;1164;-74
2022/05/19 15:05:15;;;;;;;;;;;;;;;;;;5068726;28;780;-75
2022/05/19 15:07:49;;;;;;;;;;;;;;;;;;5087128;28;1117;-76
2022/05/19 15:10:35;;;;;;;;;;;;;;;;;;5076840;28;1202;-76
2022/05/19 15:13:08;;;;;;;;;;;;;;;;;;5067245;28;1133;-77
2022/05/19 15:15:37;;;;;;;;;;;;;;;;;;5046968;28;1222;-77
2022/05/19 15:18:03;;;;;;;;;;;;;;;;;;5054324;28;1961;-75
2022/05/19 15:20:29;;;;;;;;;;;;;;;;;;5045498;28;1168;-75
2022/05/19 15:22:55;;;;;;;;;;;;;;;;;;5061375;28;756;-77
2022/05/19 15:25:22;;;;;;;;;;;;;;;;;;5065196;28;815;-77
2022/05/19 15:27:47;;;;;;;;;;;;;;;;;;5048345;28;1495;-84
2022/05/19 15:30:17;;;;;;;;;;;;;;;;;;5049077;28;1176;-83
2022/05/19 15:32:46;;;;;;;;;;;;;;;;;;5043921;28;1277;-82
2022/05/19 15:35:11;;;;;;;;;;;;;;;;;;5044848;28;1334;-82
2022/05/19 15:37:37;;;;;;;;;;;;;;;;;;5047009;28;1922;-84
2022/05/19 15:40:03;;;;;;;;;;;;;;;;;;5048263;28;1399;-83
2022/05/19 15:42:29;;;;;;;;;;;;;;;;;;5067283;28;1062;-83
2022/05/19 15:44:54;;;;;;;;;;;;;;;;;;5043479;28;1129;-82
2022/05/19 15:47:22;;;;;;;;;;;;;;;;;;5069366;28;1291;-82
2022/05/19 15:49:48;;;;;;;;;;;;;;;;;;5060059;28;1216;-83
2022/05/19 15:52:17;;;;;;;;;;;;;;;;;;5064690;28;1377;-83
2022/05/19 15:54:50;;;;;;;;;;;;;;;;;;5067163;28;1156;-83
2022/05/19 15:57:15;;;;;;;;;;;;;;;;;;5072430;28;1898;-84
2022/05/19 15:59:41;;;;;;;;;;;;;;;;;;5071843;28;1137;-82
2022/05/19 16:02:32;;;;;;;;;;;;;;;;;;5046873;28;1306;-82
2022/05/19 16:05:06;;;;;;;;;;;;;;;;;;5060615;28;1310;-83
2022/05/19 16:07:31;;;;;;;;;;;;;;;;;;5064446;28;1239;-83
2022/05/19 16:09:57;;;;;;;;;;;;;;;;;;5046354;28;1181;-86
2022/05/19 16:12:22;;;;;;;;;;;;;;;;;;5056227;28;1316;-88
2022/05/19 16:14:50;;;;;;;;;;;;;;;;;;5054629;28;1403;-84
2022/05/19 16:17:16;;;;;;;;;;;;;;;;;;5075805;28;1981;-83
2022/05/19 16:19:41;;;;;;;;;;;;;;;;;;5038920;28;1263;-83
2022/05/19 16:22:10;;;;;;;;;;;;;;;;;;5047439;28;1350;-84
2022/05/19 16:24:38;;;;;;;;;;;;;;;;;;5072552;28;1136;-84
2022/05/19 16:27:03;;;;;;;;;;;;;;;;;;5041093;28;1180;-83
2022/05/19 16:29:29;;;;;;;;;;;;;;;;;;5080490;28;1211;-83
2022/05/19 16:31:54;;;;;;;;;;;;;;;;;;5060772;28;1144;-74
2022/05/19 16:34:20;;;;;;;;;;;;;;;;;;5064445;28;1092;-75
2022/05/19 16:36:52;;;;;;;;;;;;;;;;;;5069711;28;1953;-78
2022/05/19 16:39:18;;;;;;;;;;;;;;;;;;5063741;28;1299;-78
2022/05/19 16:41:43;;;;;;;;;;;;;;;;;;5048345;28;1169;-77
2022/05/19 16:44:09;;;;;;;;;;;;;;;;;;5059948;28;1204;-76
2022/05/19 16:46:34;;;;;;;;;;;;;;;;;;5041722;28;1160;-76
2022/05/19 16:49:01;;;;;;;;;;;;;;;;;;5041621;28;1196;-77
2022/05/19 16:51:28;;;;;;;;;;;;;;;;;;5041356;28;1291;-76
2022/05/19 16:59:21;;;;;;;;;;;;;;;;;;5066702;28;1224;-79
2022/05/19 17:01:48;;;;;;;;;;;;;;;;;;5045871;28;1152;-78
2022/05/19 17:04:13;;;;;;;;;;;;;;;;;;5041956;28;1355;-76
2022/05/19 17:06:40;;;;;;;;;;;;;;;;;;5053602;28;1192;-77
2022/05/19 17:09:06;;;;;;;;;;;;;;;;;;5035477;28;1283;-74
2022/05/19 17:11:31;;;;;;;;;;;;;;;;;;5043846;28;1211;-84
2022/05/19 17:13:57;;;;;;;;;;;;;;;;;;5065997;28;1285;-82
2022/05/19 17:16:25;;;;;;;;;;;;;;;;;;5054150;28;1332;-83
2022/05/19 17:18:51;;;;;;;;;;;;;;;;;;5053462;28;1914;-83
2022/05/19 17:21:19;;;;;;;;;;;;;;;;;;5049326;28;1219;-83
2022/05/19 17:23:45;;;;;;;;;;;;;;;;;;5069958;28;1230;-83
2022/05/19 17:26:10;;;;;;;;;;;;;;;;;;5046902;28;1161;-82
2022/05/19 17:28:35;;;;;;;;;;;;;;;;;;5051364;28;1247;-82
2022/05/19 17:31:03;;;;;;;;;;;;;;;;;;5056724;28;1479;-83
2022/05/19 17:33:29;;;;;;;;;;;;;;;;;;5079946;28;1174;-83
2022/05/19 17:36:06;;;;;;;;;;;;;;;;;;5069287;28;1216;-84
2022/05/19 17:38:33;;;;;;;;;;;;;;;;;;5059132;28;1957;-83
2022/05/19 17:40:59;;;;;;;;;;;;;;;;;;5075769;28;1346;-83
2022/05/19 17:43:25;;;;;;;;;;;;;;;;;;5057673;28;1239;-82
2022/05/19 17:45:56;;;;;;;;;;;;;;;;;;5078413;28;1124;-82
2022/05/19 17:48:21;;;;;;;;;;;;;;;;;;5057844;28;1200;-84
2022/05/19 17:50:47;;;;;;;;;;;;;;;;;;5039980;28;1205;-83